Main page
METAR-TAF:

METAR-TAF

Airports :

Cervia Air Base

Cervia, Italy

latitude: 44-13N, longitude: 012-18E, elevation: 6 m

Current weather observation

The report was made 1 hour and 19 minutes ago, at 06:55 UTC
Wind 7 kt from the West
Temperature 5°C
Humidity 93%
Pressure 1028 hPa
Visibility 10 km or more
Few clouds at a height of 4000 ft

METAR: LIPC 200655Z 28007KT 9999 FEW040 05/04 Q1028 RMK FEW VIS MIN 9999 WIND THR11 /////KT WIND THR29 29005KT BLU

Time: 09:14 (08:14 UTC)

Forecast

The report was made 3 hours and 14 minutes ago, at 05:00 UTC
Forecast valid from 20 at 06 UTC to 20 at 15 UTC
Wind 10 kt from the Northeast
Visibility 10 km or more
Few clouds at a height of 3000 ft
Scattered clouds at a height of 6000 ft
Temporary
from 20 at 09 UTC to 20 at 15 UTC
Wind 15 kt from the Northeast with gusts up to 25 kt

TAF: LIPC 200500Z 2006/2015 04010KT 9999 FEW030 SCT060 TEMPO 2009/2015 04015G25KT

Weather observations and forecasts of more than 4000 airports (METAR and TAF reports).

The available stations are represented by yellow and red dots on the map.

Hover mouse over dot to see the name of the station.

Then click to see weather observations and forecasts.

To change the map : click on the green buttons with a black cross to zoom in, on the green button with a dash to zoom out, or on the green arrows for adjacent maps.


METAR-TAF: